createdAt,value
2018-11-12T00:06:49.032Z,2.57
2018-11-12T00:09:40.110Z,2.30
2018-11-12T00:24:21.995Z,3.50
2018-11-12T00:41:32.860Z,3.43
2018-11-12T00:44:24.427Z,3.90
2018-11-12T00:47:14.782Z,3.80
2018-11-12T00:49:46.382Z,4.27
2018-11-12T00:52:18.890Z,4.77
2018-11-12T00:54:51.301Z,4.40
2018-11-12T00:57:23.777Z,4.07
2018-11-12T00:59:56.120Z,3.70
2018-11-12T01:02:28.578Z,3.83
2018-11-12T01:05:01.017Z,3.80
2018-11-12T01:07:33.390Z,4.30
2018-11-12T01:10:06.174Z,4.53
2018-11-12T01:12:38.533Z,4.17
2018-11-12T01:15:16.206Z,5.40
2018-11-12T01:17:48.559Z,4.53
2018-11-12T01:20:20.975Z,4.27
2018-11-12T01:22:53.358Z,4.53
2018-11-12T01:25:25.705Z,3.80
2018-11-12T01:27:58.137Z,3.57
2018-11-12T01:30:30.466Z,3.90
2018-11-12T01:33:02.834Z,2.83
2018-11-12T01:35:35.228Z,2.37
2018-11-12T01:38:07.568Z,2.07
2018-11-12T01:40:39.940Z,2.40
2018-11-12T01:43:12.239Z,2.10
2018-11-12T01:45:44.545Z,2.37
2018-11-12T01:48:16.999Z,2.00
2018-11-12T01:50:49.299Z,1.80
2018-11-12T01:53:21.755Z,1.90
2018-11-12T01:55:54.033Z,1.70
2018-11-12T01:58:26.384Z,4.63
2018-11-12T02:00:58.705Z,1.73
2018-11-12T02:03:31.131Z,1.90
2018-11-12T02:06:03.533Z,1.80
2018-11-12T02:08:35.972Z,1.60
2018-11-12T02:11:08.442Z,1.57
2018-11-12T02:13:40.731Z,1.80
2018-11-12T02:16:13.156Z,1.90
2018-11-12T02:18:45.556Z,2.97
2018-11-12T02:21:17.939Z,1.63
2018-11-12T02:23:50.312Z,1.43
2018-11-12T02:26:22.690Z,1.43
2018-11-12T02:28:55.012Z,1.70
2018-11-12T02:31:27.350Z,1.40
2018-11-12T02:33:59.712Z,1.77
2018-11-12T02:36:32.069Z,1.50
2018-11-12T02:39:04.422Z,1.50
2018-11-12T02:41:36.731Z,1.60
2018-11-12T02:44:10.439Z,1.70
2018-11-12T02:46:42.975Z,1.63
2018-11-12T02:49:15.349Z,1.80
2018-11-12T02:51:47.661Z,1.87
2018-11-12T02:54:20.113Z,1.87
2018-11-12T02:56:52.505Z,2.10
2018-11-12T02:59:24.976Z,2.00
2018-11-12T03:01:57.402Z,2.10
2018-11-12T03:04:29.913Z,2.20
2018-11-12T03:07:02.227Z,2.43
2018-11-12T03:09:34.652Z,2.17
2018-11-12T03:12:07.233Z,2.40
2018-11-12T03:14:39.589Z,2.30
2018-11-12T03:17:11.952Z,2.60
2018-11-12T03:19:44.418Z,2.27
2018-11-12T03:22:16.761Z,2.30
2018-11-12T03:24:49.120Z,2.43
2018-11-12T03:27:21.591Z,3.10
2018-11-12T03:29:54.038Z,2.73
2018-11-12T03:32:26.500Z,3.50
2018-11-12T03:34:58.889Z,3.40
2018-11-12T03:37:31.376Z,3.73
2018-11-12T03:40:03.967Z,4.50
2018-11-12T03:42:36.478Z,4.17
2018-11-12T03:45:20.686Z,3.93
2018-11-12T03:47:53.237Z,4.17
2018-11-12T03:50:26.345Z,4.17
2018-11-12T03:52:58.810Z,4.73
2018-11-12T03:55:31.301Z,4.23
2018-11-12T03:58:04.056Z,5.03
2018-11-12T04:00:36.521Z,5.20
2018-11-12T04:03:09.045Z,4.87
2018-11-12T04:05:41.504Z,4.97
2018-11-12T04:08:13.983Z,4.40
2018-11-12T04:10:46.272Z,4.60
2018-11-12T04:13:18.712Z,4.17
2018-11-12T04:15:51.093Z,3.97
2018-11-12T04:18:23.673Z,4.07
2018-11-12T04:20:56.096Z,3.47
2018-11-12T04:23:28.650Z,3.60
2018-11-12T04:26:01.047Z,3.83
2018-11-12T04:28:33.571Z,3.27
2018-11-12T04:31:06.253Z,3.33
2018-11-12T04:33:38.733Z,2.87
2018-11-12T04:36:11.246Z,2.77
2018-11-12T04:38:43.590Z,3.20
2018-11-12T04:41:15.958Z,3.00
2018-11-12T04:43:48.373Z,3.80
2018-11-12T04:46:20.690Z,3.20
2018-11-12T04:48:53.127Z,3.47
2018-11-12T04:51:25.495Z,3.60
2018-11-12T04:53:57.812Z,3.40
2018-11-12T04:56:30.219Z,3.50
2018-11-12T04:59:02.664Z,3.40
2018-11-12T05:01:35.012Z,3.60
2018-11-12T05:04:07.603Z,3.33
2018-11-12T05:06:39.961Z,3.43
2018-11-12T05:09:13.233Z,3.27
2018-11-12T05:11:45.609Z,3.43
2018-11-12T05:14:17.983Z,2.90
2018-11-12T05:16:50.534Z,3.07
2018-11-12T05:19:22.797Z,2.47
2018-11-12T05:21:55.090Z,2.80
2018-11-12T05:24:27.364Z,2.57
2018-11-12T05:27:01.932Z,2.60
2018-11-12T05:29:34.243Z,1.93
2018-11-12T05:32:05.630Z,2.27
2018-11-12T05:34:37.133Z,2.17
2018-11-12T05:37:09.493Z,2.57
2018-11-12T05:39:41.736Z,2.17
2018-11-12T05:42:13.861Z,2.00
2018-11-12T05:44:46.206Z,2.73
2018-11-12T05:47:18.268Z,2.50
2018-11-12T05:49:50.483Z,2.37
2018-11-12T05:52:23.182Z,2.60
2018-11-12T05:54:54.696Z,2.43
2018-11-12T05:57:26.122Z,2.23
2018-11-12T05:59:57.664Z,2.70
2018-11-12T06:02:29.220Z,2.60
2018-11-12T06:05:00.974Z,1.87
2018-11-12T06:07:32.546Z,1.60
2018-11-12T06:10:04.307Z,2.17
2018-11-12T06:12:35.961Z,1.60
2018-11-12T06:15:09.249Z,1.70
2018-11-12T06:17:41.532Z,1.63
2018-11-12T06:20:38.389Z,2.07
2018-11-12T06:23:10.098Z,2.10
2018-11-12T06:25:41.742Z,2.10
2018-11-12T06:28:13.360Z,2.20
2018-11-12T06:30:45.034Z,2.27
2018-11-12T06:33:16.689Z,2.50
2018-11-12T06:35:48.388Z,2.30
2018-11-12T06:38:20.112Z,2.50
2018-11-12T06:40:51.868Z,2.60
2018-11-12T06:43:23.737Z,2.60
2018-11-12T06:45:56.713Z,2.30
2018-11-12T06:48:28.404Z,2.37
2018-11-12T06:51:00.131Z,2.60
2018-11-12T06:53:31.830Z,2.30
2018-11-12T06:56:03.482Z,2.47
2018-11-12T06:58:35.154Z,2.73
2018-11-12T07:01:06.864Z,2.63
2018-11-12T07:03:38.450Z,2.73
2018-11-12T07:06:10.140Z,2.30
2018-11-12T07:08:41.821Z,2.63
2018-11-12T07:11:13.517Z,2.20
2018-11-12T07:13:45.295Z,2.30
2018-11-12T07:16:16.995Z,2.23
2018-11-12T07:18:48.685Z,1.60
2018-11-12T07:21:20.373Z,2.27
2018-11-12T07:23:52.061Z,2.10
2018-11-12T07:26:23.679Z,2.20
2018-11-12T07:28:55.416Z,2.27
2018-11-12T07:31:27.353Z,3.30
2018-11-12T07:33:58.897Z,2.87
2018-11-12T07:36:30.671Z,2.20
2018-11-12T07:39:02.286Z,2.40
2018-11-12T07:41:33.966Z,2.33
2018-11-12T07:44:05.577Z,2.20
2018-11-12T07:46:37.335Z,2.20
2018-11-12T07:49:08.941Z,2.17
2018-11-12T07:51:40.638Z,2.43
2018-11-12T07:54:12.302Z,2.20
2018-11-12T07:56:43.921Z,2.10
2018-11-12T07:59:15.625Z,1.90
2018-11-12T08:01:47.254Z,2.30
2018-11-12T08:04:18.890Z,1.80
2018-11-12T08:06:50.527Z,2.00
2018-11-12T08:09:22.181Z,2.37
2018-11-12T08:11:53.810Z,2.10
2018-11-12T08:14:25.471Z,2.20
2018-11-12T08:16:57.055Z,2.13
2018-11-12T08:19:28.720Z,2.20
2018-11-12T08:22:00.375Z,1.90
2018-11-12T08:24:32.035Z,2.37
2018-11-12T08:27:03.704Z,2.20
2018-11-12T08:29:35.380Z,2.20
2018-11-12T08:32:06.998Z,2.60
2018-11-12T08:34:38.644Z,2.13
2018-11-12T08:37:10.436Z,2.20
2018-11-12T08:39:42.229Z,2.70
2018-11-12T08:42:13.755Z,2.43
2018-11-12T08:44:45.437Z,2.13
2018-11-12T08:47:17.087Z,2.20
2018-11-12T08:49:48.817Z,2.20
2018-11-12T08:52:20.468Z,2.43
2018-11-12T08:54:52.121Z,2.00
2018-11-12T08:57:23.675Z,2.10
2018-11-12T08:59:55.309Z,2.13
2018-11-12T09:02:26.940Z,2.27
2018-11-12T09:04:58.610Z,2.77
2018-11-12T09:07:30.302Z,2.63
2018-11-12T09:10:01.981Z,2.57
2018-11-12T09:12:33.582Z,2.80
2018-11-12T09:15:05.280Z,2.90
2018-11-12T09:17:45.719Z,2.63
2018-11-12T09:20:23.529Z,2.47
2018-11-12T09:22:59.746Z,2.50
2018-11-12T09:25:31.326Z,2.63
2018-11-12T09:28:03.134Z,2.37
2018-11-12T09:30:34.645Z,2.57
2018-11-12T09:33:06.424Z,2.90
2018-11-12T09:35:38.053Z,2.67
2018-11-12T09:38:09.835Z,2.40
2018-11-12T09:40:41.767Z,2.40
2018-11-12T09:43:16.492Z,2.57
2018-11-12T09:45:50.593Z,2.27
2018-11-12T09:48:22.838Z,2.20
2018-11-12T09:50:54.426Z,2.53
2018-11-12T09:53:26.183Z,2.53
2018-11-12T09:55:57.843Z,2.80
2018-11-12T09:58:29.496Z,2.37
2018-11-12T10:01:01.418Z,3.13
2018-11-12T10:03:33.864Z,2.67
2018-11-12T10:06:06.063Z,2.80
2018-11-12T10:08:39.521Z,2.80
2018-11-12T10:11:13.273Z,2.80
2018-11-12T10:13:44.981Z,2.40
2018-11-12T10:16:16.764Z,2.53
2018-11-12T10:18:45.731Z,2.73
2018-11-12T10:21:17.400Z,2.70
2018-11-12T10:23:49.062Z,2.50
2018-11-12T10:26:20.704Z,2.57
2018-11-12T10:28:52.409Z,2.57
2018-11-12T10:31:24.091Z,2.80
2018-11-12T10:33:55.700Z,2.40
2018-11-12T10:36:27.339Z,2.97
2018-11-12T10:38:58.960Z,3.30
2018-11-12T10:41:30.634Z,2.93
2018-11-12T10:44:02.270Z,2.57
2018-11-12T10:46:33.961Z,2.23
2018-11-12T10:49:05.660Z,3.10
2018-11-12T10:51:37.341Z,3.30
2018-11-12T10:54:09.102Z,2.93
2018-11-12T10:56:40.633Z,2.77
2018-11-12T10:59:12.342Z,2.73
2018-11-12T11:02:01.157Z,3.07
2018-11-12T11:04:32.852Z,3.10
2018-11-12T11:07:04.507Z,2.63
2018-11-12T11:09:36.151Z,2.87
2018-11-12T11:12:07.812Z,2.53
2018-11-12T11:14:39.441Z,2.33
2018-11-12T11:17:11.193Z,2.03
2018-11-12T11:19:42.968Z,2.17
2018-11-12T11:22:14.616Z,2.20
2018-11-12T11:24:46.386Z,2.20
2018-11-12T11:27:18.052Z,2.93
2018-11-12T11:29:49.770Z,2.30
2018-11-12T11:32:21.487Z,2.43
2018-11-12T11:34:54.023Z,2.43
2018-11-12T11:37:26.636Z,2.07
2018-11-12T11:39:58.384Z,2.60
2018-11-12T11:42:30.051Z,2.30
2018-11-12T11:45:01.801Z,2.80
2018-11-12T11:47:33.639Z,2.93
2018-11-12T11:50:05.332Z,2.93
2018-11-12T11:52:37.029Z,3.10
2018-11-12T11:55:12.005Z,3.47
2018-11-12T11:57:43.845Z,3.63
2018-11-12T12:00:18.140Z,4.00
2018-11-12T12:02:51.041Z,4.03
2018-11-12T12:05:23.475Z,4.20
2018-11-12T12:07:55.891Z,4.43
2018-11-12T12:10:27.546Z,4.60
2018-11-12T12:12:59.191Z,4.40
2018-11-12T12:15:30.964Z,4.80
2018-11-12T12:18:02.638Z,5.20
2018-11-12T12:20:34.309Z,4.93
2018-11-12T12:23:05.929Z,5.10
2018-11-12T12:25:37.748Z,4.97
2018-11-12T12:28:09.651Z,5.17
2018-11-12T12:30:41.380Z,5.20
2018-11-12T12:33:13.143Z,5.00
2018-11-12T12:35:44.836Z,5.20
2018-11-12T12:38:16.496Z,5.40
2018-11-12T12:40:48.271Z,5.80
2018-11-12T12:43:19.962Z,5.20
2018-11-12T12:45:51.709Z,5.40
2018-11-12T12:48:23.331Z,5.17
2018-11-12T12:50:54.981Z,5.43
2018-11-12T12:53:26.687Z,4.83
2018-11-12T12:55:58.368Z,5.20
2018-11-12T12:58:29.943Z,5.40
2018-11-12T13:01:01.599Z,4.43
2018-11-12T13:03:33.327Z,5.40
2018-11-12T13:06:05.005Z,5.70
2018-11-12T13:08:36.659Z,5.87
2018-11-12T13:11:08.523Z,5.90
2018-11-12T13:13:40.142Z,5.40
2018-11-12T13:16:11.807Z,6.20
2018-11-12T13:18:43.491Z,6.33
2018-11-12T13:21:15.162Z,6.30
2018-11-12T13:23:46.806Z,6.80
2018-11-12T13:26:18.735Z,6.07
2018-11-12T13:28:50.447Z,6.77
2018-11-12T13:31:22.306Z,6.27
2018-11-12T13:33:54.051Z,6.60
2018-11-12T13:36:25.671Z,6.33
2018-11-12T13:38:57.311Z,6.40
2018-11-12T13:41:28.982Z,7.07
2018-11-12T13:44:00.740Z,6.47
2018-11-12T13:46:49.623Z,6.70
2018-11-12T13:49:21.279Z,7.47
2018-11-12T13:51:52.757Z,7.20
2018-11-12T13:54:24.237Z,6.67
2018-11-12T13:56:55.770Z,6.70
2018-11-12T13:59:27.808Z,7.33
2018-11-12T14:01:59.273Z,6.90
2018-11-12T14:04:30.743Z,7.10
2018-11-12T14:07:02.198Z,6.80
2018-11-12T14:09:33.688Z,13.33
2018-11-12T14:12:05.143Z,10.03
2018-11-12T14:14:36.658Z,9.03
2018-11-12T14:17:08.256Z,9.00
2018-11-12T14:19:40.609Z,7.13
2018-11-12T14:22:12.055Z,7.30
2018-11-12T14:24:43.504Z,6.70
2018-11-12T14:27:15.190Z,7.10
2018-11-12T14:29:46.686Z,7.73
2018-11-12T14:32:18.133Z,6.60
2018-11-12T14:34:49.603Z,7.20
2018-11-12T14:37:21.058Z,8.00
2018-11-12T14:39:52.638Z,7.83
2018-11-12T14:42:24.061Z,7.80
2018-11-12T14:44:55.554Z,7.27
2018-11-12T14:47:26.997Z,7.97
2018-11-12T14:49:58.551Z,7.60
2018-11-12T14:52:30.013Z,8.37
2018-11-12T14:55:01.750Z,8.07
2018-11-12T14:57:33.441Z,8.10
2018-11-12T15:00:05.128Z,8.13
2018-11-12T15:02:36.792Z,7.70
2018-11-12T15:05:08.497Z,7.47
2018-11-12T15:07:40.145Z,7.40
2018-11-12T15:10:13.257Z,15.27
2018-11-12T15:12:45.607Z,18.03
2018-11-12T15:15:17.359Z,24.40
2018-11-12T15:17:49.016Z,26.60
2018-11-12T15:20:21.206Z,28.80
2018-11-12T15:22:53.010Z,23.83
2018-11-12T15:25:26.371Z,33.20
2018-11-12T15:27:58.042Z,6.50
2018-11-12T15:30:29.736Z,6.97
2018-11-12T15:33:01.446Z,6.87
2018-11-12T15:35:33.101Z,6.90
2018-11-12T15:38:05.177Z,6.50
2018-11-12T15:40:36.844Z,7.33
2018-11-12T15:43:08.618Z,7.80
2018-11-12T15:45:40.201Z,6.80
2018-11-12T15:48:11.853Z,12.53
2018-11-12T15:50:43.604Z,22.80
2018-11-12T15:53:15.182Z,27.83
2018-11-12T15:55:46.824Z,22.47
2018-11-12T15:58:18.356Z,39.20
2018-11-12T16:00:51.997Z,37.40
2018-11-12T16:03:34.652Z,47.43
2018-11-12T16:06:09.278Z,42.60
2018-11-12T16:08:40.664Z,47.10
2018-11-12T16:11:12.128Z,51.63
2018-11-12T16:13:43.599Z,52.27
2018-11-12T16:16:15.117Z,66.03
2018-11-12T16:18:46.543Z,60.40
2018-11-12T16:21:18.015Z,61.73
2018-11-12T16:23:49.469Z,64.43
2018-11-12T16:26:21.010Z,71.50
2018-11-12T16:28:52.454Z,57.73
2018-11-12T16:31:24.198Z,67.00
2018-11-12T16:33:55.654Z,64.10
2018-11-12T16:36:27.299Z,80.07
2018-11-12T16:38:58.827Z,83.43
2018-11-12T16:41:30.390Z,82.63
2018-11-12T16:44:01.841Z,77.97
2018-11-12T16:46:33.362Z,67.87
2018-11-12T16:49:04.792Z,62.13
2018-11-12T16:51:36.297Z,57.67
2018-11-12T16:54:07.872Z,22.57
2018-11-12T16:56:39.314Z,31.47
2018-11-12T16:59:10.775Z,29.37
2018-11-12T17:01:42.306Z,45.60
2018-11-12T17:04:13.800Z,34.90
2018-11-12T17:06:45.317Z,41.07
2018-11-12T17:09:16.810Z,41.13
2018-11-12T17:11:48.333Z,26.40
2018-11-12T17:14:19.793Z,21.63
2018-11-12T17:16:51.316Z,13.40
2018-11-12T17:19:22.770Z,15.87
2018-11-12T17:21:54.415Z,16.40
2018-11-12T17:24:25.920Z,22.13
2018-11-12T17:26:57.548Z,12.63
2018-11-12T17:29:29.298Z,13.87
2018-11-12T17:32:00.835Z,32.40
2018-11-12T17:34:32.546Z,57.73
2018-11-12T17:37:04.145Z,64.40
2018-11-12T17:39:35.610Z,46.57
2018-11-12T17:42:07.424Z,50.90
2018-11-12T17:44:39.007Z,50.67
2018-11-12T17:47:11.231Z,64.63
2018-11-12T17:49:42.715Z,46.53
2018-11-12T17:52:14.203Z,30.17
2018-11-12T17:54:45.672Z,36.67
2018-11-12T17:57:17.215Z,39.93
2018-11-12T17:59:51.176Z,28.67
2018-11-12T18:02:22.736Z,50.83
2018-11-12T18:04:54.185Z,31.23
2018-11-12T18:07:25.849Z,33.37
2018-11-12T18:09:57.145Z,35.13
2018-11-12T18:12:28.619Z,44.10
2018-11-12T18:15:00.061Z,32.20
2018-11-12T18:17:31.539Z,29.57
2018-11-12T18:20:02.993Z,23.67
2018-11-12T18:22:34.442Z,37.10
2018-11-12T18:25:05.915Z,38.03
2018-11-12T18:27:39.368Z,31.90
2018-11-12T18:30:20.037Z,43.80
2018-11-12T18:32:52.407Z,22.87
2018-11-12T18:35:23.844Z,43.33
2018-11-12T18:37:55.337Z,19.33
2018-11-12T18:40:28.858Z,18.07
2018-11-12T18:43:00.318Z,35.73
2018-11-12T18:45:31.902Z,74.63
2018-11-12T18:48:03.334Z,89.10
2018-11-12T18:50:34.784Z,52.23
2018-11-12T18:53:06.393Z,34.40
2018-11-12T18:55:38.302Z,38.17
2018-11-12T18:58:09.863Z,19.20
2018-11-12T19:00:41.344Z,22.80
2018-11-12T19:03:12.758Z,19.13
2018-11-12T19:05:44.358Z,17.37
2018-11-12T19:08:15.818Z,16.63
2018-11-12T19:10:48.484Z,24.40
2018-11-12T19:13:19.882Z,29.13
2018-11-12T19:15:51.366Z,23.27
2018-11-12T19:18:22.861Z,18.07
2018-11-12T19:20:54.476Z,20.57
2018-11-12T19:23:25.939Z,31.70
2018-11-12T19:25:57.387Z,17.53
2018-11-12T19:28:28.859Z,15.77
2018-11-12T19:31:00.337Z,17.40
2018-11-12T19:33:31.851Z,29.47
2018-11-12T19:36:03.292Z,40.97
2018-11-12T19:38:35.912Z,17.20
2018-11-12T19:41:08.466Z,16.33
2018-11-12T19:43:40.033Z,15.83
2018-11-12T19:46:11.481Z,17.73
2018-11-12T19:48:42.992Z,16.43
2018-11-12T19:51:14.513Z,16.60
2018-11-12T19:53:45.936Z,17.33
2018-11-12T19:56:17.453Z,15.83
2018-11-12T19:58:48.916Z,15.90
2018-11-12T20:01:20.330Z,15.10
2018-11-12T20:03:51.804Z,16.07
2018-11-12T20:06:23.285Z,14.07
2018-11-12T20:08:54.846Z,15.20
2018-11-12T20:11:26.363Z,15.67
2018-11-12T20:13:58.160Z,15.50
2018-11-12T20:16:29.577Z,16.13
2018-11-12T20:19:01.063Z,16.60
2018-11-12T20:21:34.102Z,16.00
2018-11-12T20:24:05.793Z,16.73
2018-11-12T20:26:37.336Z,17.27
2018-11-12T20:29:08.801Z,17.07
2018-11-12T20:31:40.649Z,17.97
2018-11-12T20:34:12.186Z,17.60
2018-11-12T20:36:43.662Z,16.30
2018-11-12T20:39:15.132Z,16.63
2018-11-12T20:41:46.644Z,16.03
2018-11-12T20:44:19.536Z,18.57
2018-11-12T20:46:52.318Z,18.67
2018-11-12T20:49:23.825Z,18.80
2018-11-12T20:51:55.287Z,18.67
2018-11-12T20:54:26.784Z,18.67
2018-11-12T20:56:59.235Z,50.07
2018-11-12T20:59:32.271Z,16.20
2018-11-12T21:02:05.548Z,17.20
2018-11-12T21:04:37.635Z,15.80
2018-11-12T21:07:09.858Z,15.43
2018-11-12T21:09:41.914Z,20.60
2018-11-12T21:12:13.840Z,18.33
2018-11-12T21:14:45.896Z,17.07
2018-11-12T21:17:17.871Z,15.87
2018-11-12T21:19:49.374Z,14.70
2018-11-12T21:22:20.885Z,15.33
2018-11-12T21:24:53.615Z,14.13
2018-11-12T21:27:26.529Z,14.53
2018-11-12T21:29:58.342Z,14.40
2018-11-12T21:32:30.252Z,15.80
2018-11-12T21:35:02.086Z,15.67
2018-11-12T21:37:36.249Z,16.17
2018-11-12T21:40:10.964Z,16.00
2018-11-12T21:42:43.745Z,17.23
2018-11-12T21:45:17.886Z,17.60
2018-11-12T21:47:49.998Z,16.80
2018-11-12T21:50:22.806Z,17.23
2018-11-12T21:52:54.755Z,16.27
2018-11-12T21:55:26.818Z,16.60
2018-11-12T21:57:59.804Z,16.33
2018-11-12T22:00:38.384Z,32.50
2018-11-12T22:03:15.914Z,16.00
2018-11-12T22:05:50.655Z,15.73
2018-11-12T22:08:32.309Z,18.47
2018-11-12T22:11:16.283Z,16.70
2018-11-12T22:13:56.848Z,13.80
2018-11-12T22:16:45.886Z,14.00
2018-11-12T22:19:42.314Z,14.47
2018-11-12T22:22:17.417Z,14.60
2018-11-12T22:24:52.979Z,18.70
2018-11-12T22:27:25.843Z,14.50
2018-11-12T22:29:58.477Z,14.70
2018-11-12T22:32:31.039Z,15.87
2018-11-12T22:35:06.363Z,14.23
2018-11-12T22:37:40.322Z,13.97
2018-11-12T22:40:14.338Z,13.57
2018-11-12T22:42:50.526Z,14.60
2018-11-12T22:45:24.009Z,14.63
2018-11-12T22:47:58.882Z,15.07
2018-11-12T22:50:31.652Z,16.57
2018-11-12T22:53:04.254Z,16.43
2018-11-12T22:55:38.296Z,15.67
2018-11-12T22:58:10.543Z,15.73
2018-11-12T23:00:46.732Z,16.90
2018-11-12T23:03:23.148Z,16.20
2018-11-12T23:06:15.287Z,15.20
2018-11-12T23:08:54.796Z,14.57
2018-11-12T23:11:27.832Z,14.80
2018-11-12T23:14:00.057Z,13.37
2018-11-12T23:16:32.767Z,13.57
2018-11-12T23:19:04.978Z,14.23
2018-11-12T23:21:37.577Z,13.87
2018-11-12T23:24:10.063Z,13.53
2018-11-12T23:26:42.372Z,13.90
2018-11-12T23:29:14.580Z,14.67
2018-11-12T23:31:47.266Z,14.27
2018-11-12T23:34:19.494Z,13.80
2018-11-12T23:36:52.025Z,13.93
2018-11-12T23:39:24.341Z,14.17
2018-11-12T23:41:56.638Z,13.40
2018-11-12T23:44:29.006Z,12.40
2018-11-12T23:47:03.332Z,12.87
2018-11-12T23:49:35.618Z,12.83
2018-11-12T23:52:08.158Z,12.70
2018-11-12T23:54:40.356Z,11.90
2018-11-12T23:57:12.607Z,12.87
2018-11-12T23:59:44.828Z,12.13
